sensor_id;sensor_type;location;lat;lon;timestamp;pressure;altitude;pressure_sealevel;temperature;humidity
41250;BME280;26984;59.928;30.306;2022-09-01T00:01:06;100922.97;;;7.16;100.00
41250;BME280;26984;59.928;30.306;2022-09-01T00:03:37;100917.59;;;7.16;100.00
41250;BME280;26984;59.928;30.306;2022-09-01T00:06:05;100933.41;;;7.26;100.00
41250;BME280;26984;59.928;30.306;2022-09-01T00:08:36;100923.88;;;7.24;100.00
41250;BME280;26984;59.928;30.306;2022-09-01T00:11:03;100933.84;;;7.30;100.00
41250;BME280;26984;59.928;30.306;2022-09-01T00:13:31;100926.16;;;7.41;100.00
41250;BME280;26984;59.928;30.306;2022-09-01T00:15:59;100927.53;;;7.37;100.00
41250;BME280;26984;59.928;30.306;2022-09-01T00:18:30;100927.38;;;7.24;100.00
41250;BME280;26984;59.928;30.306;2022-09-01T00:20:59;100948.72;;;7.17;100.00
41250;BME280;26984;59.928;30.306;2022-09-01T00:23:26;100915.28;;;7.13;100.00
41250;BME280;26984;59.928;30.306;2022-09-01T00:25:54;100911.44;;;7.01;100.00
41250;BME280;26984;59.928;30.306;2022-09-01T00:28:21;100938.66;;;6.90;100.00
41250;BME280;26984;59.928;30.306;2022-09-01T00:30:49;100909.03;;;6.91;100.00
41250;BME280;26984;59.928;30.306;2022-09-01T00:33:16;100923.00;;;6.87;100.00
41250;BME280;26984;59.928;30.306;2022-09-01T00:35:45;100904.97;;;6.81;100.00
41250;BME280;26984;59.928;30.306;2022-09-01T00:38:13;100897.75;;;6.81;100.00
41250;BME280;26984;59.928;30.306;2022-09-01T00:40:40;100896.47;;;6.77;100.00
41250;BME280;26984;59.928;30.306;2022-09-01T00:43:12;100925.28;;;6.75;100.00
41250;BME280;26984;59.928;30.306;2022-09-01T00:45:39;100899.16;;;6.62;100.00
41250;BME280;26984;59.928;30.306;2022-09-01T00:48:08;100904.78;;;6.67;100.00
41250;BME280;26984;59.928;30.306;2022-09-01T00:50:35;100901.16;;;6.75;100.00
41250;BME280;26984;59.928;30.306;2022-09-01T00:53:05;100898.59;;;6.67;100.00
41250;BME280;26984;59.928;30.306;2022-09-01T00:55:33;100904.31;;;6.64;100.00
41250;BME280;26984;59.928;30.306;2022-09-01T00:58:04;100907.09;;;6.56;100.00
41250;BME280;26984;59.928;30.306;2022-09-01T01:00:33;100901.84;;;6.62;100.00
41250;BME280;26984;59.928;30.306;2022-09-01T01:03:06;100886.13;;;6.59;100.00
41250;BME280;26984;59.928;30.306;2022-09-01T01:05:35;100879.97;;;6.59;100.00
41250;BME280;26984;59.928;30.306;2022-09-01T01:08:06;100889.53;;;6.68;100.00
41250;BME280;26984;59.928;30.306;2022-09-01T01:10:35;100892.22;;;6.68;100.00
41250;BME280;26984;59.928;30.306;2022-09-01T01:13:05;100895.56;;;6.70;100.00
41250;BME280;26984;59.928;30.306;2022-09-01T01:15:33;100892.78;;;6.63;100.00
41250;BME280;26984;59.928;30.306;2022-09-01T01:18:01;100893.69;;;6.70;100.00
41250;BME280;26984;59.928;30.306;2022-09-01T01:20:28;100877.44;;;6.72;100.00
41250;BME280;26984;59.928;30.306;2022-09-01T01:23:18;100876.00;;;6.69;100.00
41250;BME280;26984;59.928;30.306;2022-09-01T01:25:50;100867.19;;;6.76;100.00
41250;BME280;26984;59.928;30.306;2022-09-01T01:28:19;100874.13;;;6.70;100.00
41250;BME280;26984;59.928;30.306;2022-09-01T01:30:51;100871.34;;;6.78;100.00
41250;BME280;26984;59.928;30.306;2022-09-01T01:33:20;100867.38;;;6.74;100.00
41250;BME280;26984;59.928;30.306;2022-09-01T01:35:48;100884.19;;;6.68;100.00
41250;BME280;26984;59.928;30.306;2022-09-01T01:38:15;100864.91;;;6.72;100.00
41250;BME280;26984;59.928;30.306;2022-09-01T01:40:45;100901.63;;;6.79;100.00
41250;BME280;26984;59.928;30.306;2022-09-01T01:43:14;100870.91;;;6.75;100.00
41250;BME280;26984;59.928;30.306;2022-09-01T01:45:45;100873.94;;;6.71;100.00
41250;BME280;26984;59.928;30.306;2022-09-01T01:48:14;100876.53;;;6.65;100.00
41250;BME280;26984;59.928;30.306;2022-09-01T01:50:50;100858.81;;;6.64;100.00
41250;BME280;26984;59.928;30.306;2022-09-01T01:53:18;100859.25;;;6.67;100.00
41250;BME280;26984;59.928;30.306;2022-09-01T01:55:47;100866.00;;;6.63;100.00
41250;BME280;26984;59.928;30.306;2022-09-01T01:58:17;100880.78;;;6.59;100.00
41250;BME280;26984;59.928;30.306;2022-09-01T02:00:46;100866.00;;;6.63;100.00
41250;BME280;26984;59.928;30.306;2022-09-01T02:03:14;100853.28;;;6.65;100.00
41250;BME280;26984;59.928;30.306;2022-09-01T02:05:44;100873.38;;;6.61;100.00
41250;BME280;26984;59.928;30.306;2022-09-01T02:08:12;100868.41;;;6.58;100.00
41250;BME280;26984;59.928;30.306;2022-09-01T02:10:41;100852.63;;;6.48;100.00
41250;BME280;26984;59.928;30.306;2022-09-01T02:13:09;100865.81;;;6.65;100.00
41250;BME280;26984;59.928;30.306;2022-09-01T02:15:44;100859.94;;;6.55;100.00
41250;BME280;26984;59.928;30.306;2022-09-01T02:18:12;100850.97;;;6.62;100.00
41250;BME280;26984;59.928;30.306;2022-09-01T02:20:42;100845.50;;;6.70;100.00
41250;BME280;26984;59.928;30.306;2022-09-01T02:23:09;100849.47;;;6.60;100.00
41250;BME280;26984;59.928;30.306;2022-09-01T02:25:38;100856.22;;;6.56;100.00
41250;BME280;26984;59.928;30.306;2022-09-01T02:28:09;100847.06;;;6.50;100.00
41250;BME280;26984;59.928;30.306;2022-09-01T02:30:43;100841.25;;;6.61;100.00
41250;BME280;26984;59.928;30.306;2022-09-01T02:33:11;100864.53;;;6.61;100.00
41250;BME280;26984;59.928;30.306;2022-09-01T02:35:45;100853.44;;;6.64;100.00
41250;BME280;26984;59.928;30.306;2022-09-01T02:38:13;100850.97;;;6.62;100.00
41250;BME280;26984;59.928;30.306;2022-09-01T02:40:43;100849.13;;;6.63;100.00
41250;BME280;26984;59.928;30.306;2022-09-01T02:43:13;100846.69;;;6.68;100.00
41250;BME280;26984;59.928;30.306;2022-09-01T02:45:46;100841.34;;;6.68;100.00
41250;BME280;26984;59.928;30.306;2022-09-01T02:48:17;100861.47;;;6.64;100.00
41250;BME280;26984;59.928;30.306;2022-09-01T02:50:47;100855.19;;;6.71;100.00
41250;BME280;26984;59.928;30.306;2022-09-01T02:53:15;100831.13;;;6.57;100.00
41250;BME280;26984;59.928;30.306;2022-09-01T02:55:44;100839.03;;;6.65;100.00
41250;BME280;26984;59.928;30.306;2022-09-01T02:58:12;100861.56;;;6.70;100.00
41250;BME280;26984;59.928;30.306;2022-09-01T03:00:47;100836.56;;;6.63;100.00
41250;BME280;26984;59.928;30.306;2022-09-01T03:03:19;100844.41;;;6.65;100.00
41250;BME280;26984;59.928;30.306;2022-09-01T03:05:47;100837.03;;;6.67;100.00
41250;BME280;26984;59.928;30.306;2022-09-01T03:08:21;100829.81;;;6.67;100.00
41250;BME280;26984;59.928;30.306;2022-09-01T03:10:50;100838.97;;;6.58;100.00
41250;BME280;26984;59.928;30.306;2022-09-01T03:13:19;100855.28;;;6.63;100.00
41250;BME280;26984;59.928;30.306;2022-09-01T03:15:50;100849.69;;;6.58;100.00
41250;BME280;26984;59.928;30.306;2022-09-01T03:18:17;100837.38;;;6.64;100.00
41250;BME280;26984;59.928;30.306;2022-09-01T03:20:45;100836.94;;;6.60;100.00
41250;BME280;26984;59.928;30.306;2022-09-01T03:23:14;100856.59;;;6.67;100.00
41250;BME280;26984;59.928;30.306;2022-09-01T03:25:44;100842.38;;;6.67;100.00
41250;BME280;26984;59.928;30.306;2022-09-01T03:28:12;100833.41;;;6.60;100.00
41250;BME280;26984;59.928;30.306;2022-09-01T03:30:43;100837.59;;;6.62;100.00
41250;BME280;26984;59.928;30.306;2022-09-01T03:33:12;100838.13;;;6.58;100.00
41250;BME280;26984;59.928;30.306;2022-09-01T03:35:39;100871.63;;;6.68;100.00
41250;BME280;26984;59.928;30.306;2022-09-01T03:38:07;100849.56;;;6.66;100.00
41250;BME280;26984;59.928;30.306;2022-09-01T03:40:35;100853.91;;;6.67;100.00
41250;BME280;26984;59.928;30.306;2022-09-01T03:43:04;100853.91;;;6.67;100.00
41250;BME280;26984;59.928;30.306;2022-09-01T03:45:31;100852.72;;;6.70;100.00
41250;BME280;26984;59.928;30.306;2022-09-01T03:48:00;100852.16;;;6.75;100.00
41250;BME280;26984;59.928;30.306;2022-09-01T03:50:30;100855.41;;;6.70;100.00
41250;BME280;26984;59.928;30.306;2022-09-01T03:52:58;100855.03;;;6.73;100.00
41250;BME280;26984;59.928;30.306;2022-09-01T03:55:28;100846.53;;;6.69;100.00
41250;BME280;26984;59.928;30.306;2022-09-01T03:57:57;100838.97;;;6.73;100.00
41250;BME280;26984;59.928;30.306;2022-09-01T04:00:25;100836.09;;;6.75;100.00
41250;BME280;26984;59.928;30.306;2022-09-01T04:02:56;100846.78;;;6.75;100.00
41250;BME280;26984;59.928;30.306;2022-09-01T04:05:26;100856.31;;;6.77;100.00
41250;BME280;26984;59.928;30.306;2022-09-01T04:07:58;100849.81;;;6.86;100.00
41250;BME280;26984;59.928;30.306;2022-09-01T04:10:27;100841.91;;;6.78;100.00
41250;BME280;26984;59.928;30.306;2022-09-01T04:12:54;100836.44;;;6.86;100.00
41250;BME280;26984;59.928;30.306;2022-09-01T04:15:24;100840.13;;;6.85;100.00
41250;BME280;26984;59.928;30.306;2022-09-01T04:17:52;100840.97;;;6.86;100.00
41250;BME280;26984;59.928;30.306;2022-09-01T04:20:35;100830.91;;;6.88;100.00
41250;BME280;26984;59.928;30.306;2022-09-01T04:23:15;100835.22;;;6.89;100.00
41250;BME280;26984;59.928;30.306;2022-09-01T04:25:47;100832.09;;;6.85;100.00
41250;BME280;26984;59.928;30.306;2022-09-01T04:28:16;100844.19;;;6.96;100.00
41250;BME280;26984;59.928;30.306;2022-09-01T04:30:51;100860.91;;;6.98;100.00
41250;BME280;26984;59.928;30.306;2022-09-01T04:33:22;100840.94;;;7.01;100.00
41250;BME280;26984;59.928;30.306;2022-09-01T04:35:50;100861.81;;;7.05;100.00
41250;BME280;26984;59.928;30.306;2022-09-01T04:38:22;100833.63;;;7.09;100.00
41250;BME280;26984;59.928;30.306;2022-09-01T04:40:50;100833.44;;;7.11;100.00
41250;BME280;26984;59.928;30.306;2022-09-01T04:43:18;100828.97;;;7.18;100.00
41250;BME280;26984;59.928;30.306;2022-09-01T04:45:46;100850.41;;;7.18;100.00
41250;BME280;26984;59.928;30.306;2022-09-01T04:48:15;100854.94;;;7.17;100.00
41250;BME280;26984;59.928;30.306;2022-09-01T04:50:43;100851.00;;;7.13;100.00
41250;BME280;26984;59.928;30.306;2022-09-01T04:53:22;100845.50;;;7.22;100.00
41250;BME280;26984;59.928;30.306;2022-09-01T04:55:50;100838.00;;;7.32;100.00
41250;BME280;26984;59.928;30.306;2022-09-01T04:58:19;100845.41;;;7.30;100.00
41250;BME280;26984;59.928;30.306;2022-09-01T05:00:48;100844.84;;;7.34;100.00
41250;BME280;26984;59.928;30.306;2022-09-01T05:03:18;100841.31;;;7.34;100.00
41250;BME280;26984;59.928;30.306;2022-09-01T05:06:14;100849.00;;;7.37;100.00
41250;BME280;26984;59.928;30.306;2022-09-01T05:08:59;100841.66;;;7.46;100.00
41250;BME280;26984;59.928;30.306;2022-09-01T05:11:46;100835.84;;;7.42;100.00
41250;BME280;26984;59.928;30.306;2022-09-01T05:14:23;100834.25;;;7.48;100.00
41250;BME280;26984;59.928;30.306;2022-09-01T05:16:55;100867.03;;;7.50;100.00
41250;BME280;26984;59.928;30.306;2022-09-01T05:19:25;100851.69;;;7.58;100.00
41250;BME280;26984;59.928;30.306;2022-09-01T05:21:58;100846.50;;;7.57;100.00
41250;BME280;26984;59.928;30.306;2022-09-01T05:24:27;100846.88;;;7.54;100.00
41250;BME280;26984;59.928;30.306;2022-09-01T05:26:58;100846.94;;;7.60;100.00
41250;BME280;26984;59.928;30.306;2022-09-01T05:29:26;100848.41;;;7.63;100.00
41250;BME280;26984;59.928;30.306;2022-09-01T05:31:56;100853.41;;;7.66;100.00
41250;BME280;26984;59.928;30.306;2022-09-01T05:34:25;100841.41;;;7.62;100.00
41250;BME280;26984;59.928;30.306;2022-09-01T05:36:55;100846.94;;;7.60;100.00
41250;BME280;26984;59.928;30.306;2022-09-01T05:39:24;100848.47;;;7.48;100.00
41250;BME280;26984;59.928;30.306;2022-09-01T05:41:53;100858.69;;;7.59;100.00
41250;BME280;26984;59.928;30.306;2022-09-01T05:44:22;100852.31;;;7.60;100.00
41250;BME280;26984;59.928;30.306;2022-09-01T05:46:51;100852.22;;;7.75;100.00
41250;BME280;26984;59.928;30.306;2022-09-01T05:49:20;100856.25;;;7.64;100.00
41250;BME280;26984;59.928;30.306;2022-09-01T05:51:49;100864.13;;;7.66;100.00
41250;BME280;26984;59.928;30.306;2022-09-01T05:54:20;100859.16;;;7.63;100.00
41250;BME280;26984;59.928;30.306;2022-09-01T05:56:50;100858.31;;;7.62;100.00
41250;BME280;26984;59.928;30.306;2022-09-01T05:59:26;100864.56;;;7.70;100.00
41250;BME280;26984;59.928;30.306;2022-09-01T06:02:15;100852.97;;;7.62;100.00
41250;BME280;26984;59.928;30.306;2022-09-01T06:04:43;100855.81;;;7.61;100.00
41250;BME280;26984;59.928;30.306;2022-09-01T06:07:16;100869.63;;;7.58;100.00
41250;BME280;26984;59.928;30.306;2022-09-01T06:09:48;100865.09;;;7.58;100.00
41250;BME280;26984;59.928;30.306;2022-09-01T06:12:20;100873.00;;;7.66;100.00
41250;BME280;26984;59.928;30.306;2022-09-01T06:14:51;100868.28;;;7.68;100.00
41250;BME280;26984;59.928;30.306;2022-09-01T06:17:20;100855.50;;;7.71;100.00
41250;BME280;26984;59.928;30.306;2022-09-01T06:19:50;100854.09;;;7.75;100.00
41250;BME280;26984;59.928;30.306;2022-09-01T06:22:18;100856.25;;;7.86;100.00
41250;BME280;26984;59.928;30.306;2022-09-01T06:24:47;100864.25;;;7.79;100.00
41250;BME280;26984;59.928;30.306;2022-09-01T06:27:17;100855.19;;;7.80;100.00
41250;BME280;26984;59.928;30.306;2022-09-01T06:29:45;100857.50;;;7.83;100.00
41250;BME280;26984;59.928;30.306;2022-09-01T06:32:15;100859.06;;;7.99;100.00
41250;BME280;26984;59.928;30.306;2022-09-01T06:34:44;100863.97;;;7.96;100.00
41250;BME280;26984;59.928;30.306;2022-09-01T06:37:16;100868.31;;;7.97;100.00
41250;BME280;26984;59.928;30.306;2022-09-01T06:39:48;100868.38;;;8.03;100.00
41250;BME280;26984;59.928;30.306;2022-09-01T06:42:16;100863.06;;;8.10;100.00
41250;BME280;26984;59.928;30.306;2022-09-01T06:44:52;100872.81;;;8.18;100.00
41250;BME280;26984;59.928;30.306;2022-09-01T06:47:21;100872.31;;;8.07;100.00
41250;BME280;26984;59.928;30.306;2022-09-01T06:49:49;100885.25;;;8.19;100.00
41250;BME280;26984;59.928;30.306;2022-09-01T06:52:20;100873.03;;;8.16;100.00
41250;BME280;26984;59.928;30.306;2022-09-01T06:54:50;100875.56;;;8.24;100.00
41250;BME280;26984;59.928;30.306;2022-09-01T06:57:19;100886.94;;;8.26;100.00
41250;BME280;26984;59.928;30.306;2022-09-01T06:59:48;100879.22;;;8.16;100.00
41250;BME280;26984;59.928;30.306;2022-09-01T07:02:16;100883.22;;;8.27;100.00
41250;BME280;26984;59.928;30.306;2022-09-01T07:05:24;100879.47;;;8.22;100.00
41250;BME280;26984;59.928;30.306;2022-09-01T07:07:53;100883.44;;;8.26;100.00
41250;BME280;26984;59.928;30.306;2022-09-01T07:10:40;100893.13;;;8.27;100.00
41250;BME280;26984;59.928;30.306;2022-09-01T07:13:17;100881.13;;;8.44;100.00
41250;BME280;26984;59.928;30.306;2022-09-01T07:15:47;100888.09;;;8.38;100.00
41250;BME280;26984;59.928;30.306;2022-09-01T07:18:15;100890.91;;;8.58;100.00
41250;BME280;26984;59.928;30.306;2022-09-01T07:20:44;100902.66;;;8.51;100.00
41250;BME280;26984;59.928;30.306;2022-09-01T07:23:14;100901.16;;;8.48;100.00
41250;BME280;26984;59.928;30.306;2022-09-01T07:25:42;100901.16;;;8.48;100.00
41250;BME280;26984;59.928;30.306;2022-09-01T07:28:22;100914.22;;;8.51;100.00
41250;BME280;26984;59.928;30.306;2022-09-01T07:30:50;100905.47;;;8.43;100.00
41250;BME280;26984;59.928;30.306;2022-09-01T07:33:20;100913.38;;;8.51;100.00
41250;BME280;26984;59.928;30.306;2022-09-01T07:35:54;100909.06;;;8.56;100.00
41250;BME280;26984;59.928;30.306;2022-09-01T07:38:23;100912.56;;;8.50;100.00
41250;BME280;26984;59.928;30.306;2022-09-01T07:40:50;100915.63;;;8.47;100.00
41250;BME280;26984;59.928;30.306;2022-09-01T07:43:45;100916.31;;;8.56;100.00
41250;BME280;26984;59.928;30.306;2022-09-01T07:46:36;100920.84;;;8.55;100.00
41250;BME280;26984;59.928;30.306;2022-09-01T07:49:05;100923.16;;;8.58;100.00
41250;BME280;26984;59.928;30.306;2022-09-01T07:51:34;100925.38;;;8.55;100.00
41250;BME280;26984;59.928;30.306;2022-09-01T07:54:02;100920.63;;;8.57;100.00
41250;BME280;26984;59.928;30.306;2022-09-01T07:56:29;100915.13;;;8.65;100.00
41250;BME280;26984;59.928;30.306;2022-09-01T07:58:57;100917.88;;;8.78;100.00
41250;BME280;26984;59.928;30.306;2022-09-01T08:01:28;100931.75;;;8.82;100.00
41250;BME280;26984;59.928;30.306;2022-09-01T08:03:56;100926.53;;;8.74;100.00
41250;BME280;26984;59.928;30.306;2022-09-01T08:06:25;100919.69;;;8.71;100.00
41250;BME280;26984;59.928;30.306;2022-09-01T08:08:55;100920.56;;;8.78;100.00
41250;BME280;26984;59.928;30.306;2022-09-01T08:11:25;100943.19;;;8.91;100.00
41250;BME280;26984;59.928;30.306;2022-09-01T08:13:53;100916.28;;;8.84;100.00
41250;BME280;26984;59.928;30.306;2022-09-01T08:16:24;100922.28;;;8.86;100.00
41250;BME280;26984;59.928;30.306;2022-09-01T08:18:52;100924.34;;;8.84;100.00
41250;BME280;26984;59.928;30.306;2022-09-01T08:21:26;100928.09;;;8.90;100.00
41250;BME280;26984;59.928;30.306;2022-09-01T08:24:14;100931.69;;;8.69;100.00
41250;BME280;26984;59.928;30.306;2022-09-01T08:26:41;100937.63;;;8.64;100.00
41250;BME280;26984;59.928;30.306;2022-09-01T08:29:09;100932.06;;;8.66;100.00
41250;BME280;26984;59.928;30.306;2022-09-01T08:31:40;100935.38;;;8.68;100.00
41250;BME280;26984;59.928;30.306;2022-09-01T08:34:09;100946.22;;;8.81;100.00
41250;BME280;26984;59.928;30.306;2022-09-01T08:36:37;100946.81;;;8.76;100.00
41250;BME280;26984;59.928;30.306;2022-09-01T08:39:05;100940.88;;;8.87;100.00
41250;BME280;26984;59.928;30.306;2022-09-01T08:41:39;100957.84;;;8.88;100.00
41250;BME280;26984;59.928;30.306;2022-09-01T08:44:11;100950.97;;;8.79;100.00
41250;BME280;26984;59.928;30.306;2022-09-01T08:46:41;100945.00;;;8.83;100.00
41250;BME280;26984;59.928;30.306;2022-09-01T08:49:13;100961.66;;;8.72;100.00
41250;BME280;26984;59.928;30.306;2022-09-01T08:51:59;100958.81;;;8.52;100.00
41250;BME280;26984;59.928;30.306;2022-09-01T08:54:36;100962.94;;;8.48;100.00
41250;BME280;26984;59.928;30.306;2022-09-01T08:57:09;100962.59;;;8.58;100.00
41250;BME280;26984;59.928;30.306;2022-09-01T09:00:05;100960.72;;;8.86;100.00
41250;BME280;26984;59.928;30.306;2022-09-01T09:02:37;100950.25;;;8.98;100.00
41250;BME280;26984;59.928;30.306;2022-09-01T09:05:07;100957.28;;;8.99;100.00
41250;BME280;26984;59.928;30.306;2022-09-01T09:07:53;100965.22;;;9.14;100.00
41250;BME280;26984;59.928;30.306;2022-09-01T09:10:25;100982.38;;;9.13;100.00
41250;BME280;26984;59.928;30.306;2022-09-01T09:13:00;100974.88;;;9.02;100.00
41250;BME280;26984;59.928;30.306;2022-09-01T09:15:31;100984.84;;;9.08;100.00
41250;BME280;26984;59.928;30.306;2022-09-01T09:18:05;100986.28;;;9.10;100.00
41250;BME280;26984;59.928;30.306;2022-09-01T09:20:37;100977.81;;;9.14;100.00
41250;BME280;26984;59.928;30.306;2022-09-01T09:23:06;100980.75;;;9.19;100.00
41250;BME280;26984;59.928;30.306;2022-09-01T09:25:36;100991.34;;;9.27;100.00
41250;BME280;26984;59.928;30.306;2022-09-01T09:28:05;100984.06;;;9.21;100.00
41250;BME280;26984;59.928;30.306;2022-09-01T09:30:34;100992.59;;;9.31;100.00
41250;BME280;26984;59.928;30.306;2022-09-01T09:33:02;101021.69;;;9.21;100.00
41250;BME280;26984;59.928;30.306;2022-09-01T09:35:31;101005.53;;;9.14;100.00
41250;BME280;26984;59.928;30.306;2022-09-01T09:38:14;101011.63;;;8.95;100.00
41250;BME280;26984;59.928;30.306;2022-09-01T09:40:56;100999.41;;;8.92;100.00
41250;BME280;26984;59.928;30.306;2022-09-01T09:43:26;101019.13;;;8.78;100.00
41250;BME280;26984;59.928;30.306;2022-09-01T09:48:46;101013.75;;;8.50;100.00
41250;BME280;26984;59.928;30.306;2022-09-01T09:51:14;101012.78;;;8.57;100.00
41250;BME280;26984;59.928;30.306;2022-09-01T09:53:42;101028.38;;;8.69;100.00
41250;BME280;26984;59.928;30.306;2022-09-01T09:56:15;101004.81;;;8.71;100.00
41250;BME280;26984;59.928;30.306;2022-09-01T09:58:44;101020.03;;;8.85;100.00
41250;BME280;26984;59.928;30.306;2022-09-01T10:01:13;101020.16;;;9.05;100.00
41250;BME280;26984;59.928;30.306;2022-09-01T10:03:43;101030.81;;;9.20;100.00
41250;BME280;26984;59.928;30.306;2022-09-01T10:06:12;101030.03;;;9.26;100.00
41250;BME280;26984;59.928;30.306;2022-09-01T10:08:40;101031.44;;;9.22;100.00
41250;BME280;26984;59.928;30.306;2022-09-01T10:11:11;101019.44;;;9.24;100.00
41250;BME280;26984;59.928;30.306;2022-09-01T10:13:52;101018.69;;;9.37;100.00
41250;BME280;26984;59.928;30.306;2022-09-01T10:16:22;101020.25;;;9.59;100.00
41250;BME280;26984;59.928;30.306;2022-09-01T10:18:51;101030.00;;;9.67;100.00
41250;BME280;26984;59.928;30.306;2022-09-01T10:21:20;101032.31;;;9.77;100.00
41250;BME280;26984;59.928;30.306;2022-09-01T10:23:48;101036.28;;;9.81;100.00
41250;BME280;26984;59.928;30.306;2022-09-01T10:26:16;101040.03;;;9.87;100.00
41250;BME280;26984;59.928;30.306;2022-09-01T10:28:46;101038.63;;;10.04;100.00
41250;BME280;26984;59.928;30.306;2022-09-01T10:31:15;101043.38;;;10.02;100.00
41250;BME280;26984;59.928;30.306;2022-09-01T10:33:43;101047.72;;;10.03;100.00
41250;BME280;26984;59.928;30.306;2022-09-01T10:36:10;101053.75;;;10.05;100.00
41250;BME280;26984;59.928;30.306;2022-09-01T10:38:40;101069.66;;;9.93;100.00
41250;BME280;26984;59.928;30.306;2022-09-01T10:41:08;101080.13;;;9.68;100.00
41250;BME280;26984;59.928;30.306;2022-09-01T10:43:40;101056.44;;;9.50;100.00
41250;BME280;26984;59.928;30.306;2022-09-01T10:48:57;101070.22;;;9.41;100.00
41250;BME280;26984;59.928;30.306;2022-09-01T10:56:52;101076.31;;;9.56;100.00
41250;BME280;26984;59.928;30.306;2022-09-01T10:59:24;101078.59;;;9.59;100.00
41250;BME280;26984;59.928;30.306;2022-09-01T11:02:08;101087.44;;;9.46;100.00
41250;BME280;26984;59.928;30.306;2022-09-01T11:07:31;101084.72;;;9.11;100.00
41250;BME280;26984;59.928;30.306;2022-09-01T11:10:09;101092.63;;;9.20;100.00
41250;BME280;26984;59.928;30.306;2022-09-01T11:12:47;101095.75;;;9.23;100.00
41250;BME280;26984;59.928;30.306;2022-09-01T11:15:35;101091.13;;;9.45;100.00
41250;BME280;26984;59.928;30.306;2022-09-01T11:20:45;101093.28;;;9.56;100.00
41250;BME280;26984;59.928;30.306;2022-09-01T11:23:21;101092.81;;;9.46;100.00
41250;BME280;26984;59.928;30.306;2022-09-01T11:25:49;101102.22;;;9.29;100.00
41250;BME280;26984;59.928;30.306;2022-09-01T11:31:20;101091.53;;;9.14;100.00
41250;BME280;26984;59.928;30.306;2022-09-01T11:33:55;101111.41;;;9.13;100.00
41250;BME280;26984;59.928;30.306;2022-09-01T11:36:27;101086.16;;;9.07;100.00
41250;BME280;26984;59.928;30.306;2022-09-01T11:39:02;101085.25;;;9.00;100.00
41250;BME280;26984;59.928;30.306;2022-09-01T11:41:31;101090.59;;;8.94;100.00
41250;BME280;26984;59.928;30.306;2022-09-01T11:44:01;101083.72;;;8.91;100.00
41250;BME280;26984;59.928;30.306;2022-09-01T11:46:30;101091.41;;;8.94;100.00
41250;BME280;26984;59.928;30.306;2022-09-01T11:49:00;101098.47;;;8.74;100.00
41250;BME280;26984;59.928;30.306;2022-09-01T11:51:36;101096.03;;;8.79;100.00
41250;BME280;26984;59.928;30.306;2022-09-01T11:54:06;101096.59;;;8.74;100.00
41250;BME280;26984;59.928;30.306;2022-09-01T11:56:34;101097.19;;;8.70;100.00
41250;BME280;26984;59.928;30.306;2022-09-01T11:59:02;101089.34;;;8.68;100.00
41250;BME280;26984;59.928;30.306;2022-09-01T12:01:33;101109.06;;;8.60;100.00
41250;BME280;26984;59.928;30.306;2022-09-01T12:04:17;101106.00;;;8.63;100.00
41250;BME280;26984;59.928;30.306;2022-09-01T12:06:50;101120.53;;;8.69;100.00
41250;BME280;26984;59.928;30.306;2022-09-01T12:09:23;101109.59;;;8.71;100.00
41250;BME280;26984;59.928;30.306;2022-09-01T12:12:00;101110.56;;;8.63;100.00
41250;BME280;26984;59.928;30.306;2022-09-01T12:14:27;101101.28;;;8.66;100.00
41250;BME280;26984;59.928;30.306;2022-09-01T12:16:55;101113.97;;;8.72;100.00
41250;BME280;26984;59.928;30.306;2022-09-01T12:19:24;101101.59;;;8.77;100.00
41250;BME280;26984;59.928;30.306;2022-09-01T12:21:55;101094.47;;;8.91;100.00
41250;BME280;26984;59.928;30.306;2022-09-01T12:24:26;101091.25;;;9.02;100.00
41250;BME280;26984;59.928;30.306;2022-09-01T12:26:53;101100.59;;;9.06;100.00
41250;BME280;26984;59.928;30.306;2022-09-01T12:29:23;101105.13;;;9.06;100.00
41250;BME280;26984;59.928;30.306;2022-09-01T12:31:51;101118.63;;;9.13;100.00
41250;BME280;26984;59.928;30.306;2022-09-01T12:34:24;101111.22;;;9.15;100.00
41250;BME280;26984;59.928;30.306;2022-09-01T12:37:02;101117.47;;;9.22;100.00
41250;BME280;26984;59.928;30.306;2022-09-01T12:39:33;101110.47;;;9.27;100.00
41250;BME280;26984;59.928;30.306;2022-09-01T12:42:02;101120.63;;;9.32;100.00
41250;BME280;26984;59.928;30.306;2022-09-01T12:44:30;101132.25;;;9.39;100.00
41250;BME280;26984;59.928;30.306;2022-09-01T12:47:00;101122.75;;;9.37;100.00
41250;BME280;26984;59.928;30.306;2022-09-01T12:49:35;101144.53;;;9.20;100.00
41250;BME280;26984;59.928;30.306;2022-09-01T12:52:10;101126.75;;;9.19;100.00
41250;BME280;26984;59.928;30.306;2022-09-01T12:54:40;101149.41;;;9.10;100.00
41250;BME280;26984;59.928;30.306;2022-09-01T12:57:08;101116.22;;;8.96;100.00
41250;BME280;26984;59.928;30.306;2022-09-01T12:59:35;101115.84;;;8.99;100.00
41250;BME280;26984;59.928;30.306;2022-09-01T13:04:48;101131.25;;;9.12;100.00
41250;BME280;26984;59.928;30.306;2022-09-01T13:07:15;101140.72;;;9.08;100.00
41250;BME280;26984;59.928;30.306;2022-09-01T13:09:44;101129.28;;;8.99;100.00
41250;BME280;26984;59.928;30.306;2022-09-01T13:12:16;101138.06;;;8.86;100.00
41250;BME280;26984;59.928;30.306;2022-09-01T13:14:44;101120.66;;;8.82;100.00
41250;BME280;26984;59.928;30.306;2022-09-01T13:17:11;101144.00;;;8.82;100.00
41250;BME280;26984;59.928;30.306;2022-09-01T13:19:39;101134.78;;;8.91;100.00
41250;BME280;26984;59.928;30.306;2022-09-01T13:22:06;101133.63;;;9.00;100.00